createdAt,value
2017-06-03T00:01:08.815Z,69.20
2017-06-03T00:03:38.588Z,68.70
2017-06-03T00:06:07.453Z,68.40
2017-06-03T00:08:38.799Z,68.10
2017-06-03T00:11:06.941Z,68.10
2017-06-03T00:13:35.814Z,68.00
2017-06-03T00:16:05.484Z,68.30
2017-06-03T00:18:34.397Z,67.70
2017-06-03T00:21:07.840Z,68.70
2017-06-03T00:23:37.270Z,68.70
2017-06-03T00:26:06.126Z,68.80
2017-06-03T00:28:35.017Z,69.30
2017-06-03T00:31:03.911Z,69.20
2017-06-03T00:33:32.828Z,69.00
2017-06-03T00:36:01.724Z,69.30
2017-06-03T00:38:30.599Z,68.90
2017-06-03T00:40:59.545Z,68.80
2017-06-03T00:43:28.719Z,68.70
2017-06-03T00:45:57.602Z,68.60
2017-06-03T00:48:26.500Z,68.20
2017-06-03T00:50:55.375Z,67.90
2017-06-03T00:53:45.854Z,67.90
2017-06-03T00:56:14.748Z,68.20
2017-06-03T00:58:44.392Z,68.40
2017-06-03T01:01:12.488Z,68.40
2017-06-03T01:03:41.371Z,69.10
2017-06-03T01:06:10.226Z,69.10
2017-06-03T01:08:39.094Z,69.10
2017-06-03T01:11:07.937Z,69.20
2017-06-03T01:13:39.198Z,69.20
2017-06-03T01:16:08.055Z,69.00
2017-06-03T01:18:36.152Z,68.90
2017-06-03T01:21:05.147Z,69.10
2017-06-03T01:23:33.999Z,69.20
2017-06-03T01:26:02.879Z,69.40
2017-06-03T01:28:31.722Z,69.40
2017-06-03T01:31:00.569Z,69.60
2017-06-03T01:33:29.456Z,69.80
2017-06-03T01:35:58.361Z,70.00
2017-06-03T01:38:27.330Z,70.10
2017-06-03T01:40:56.190Z,70.30
2017-06-03T01:43:26.144Z,70.50
2017-06-03T01:45:55.375Z,70.80
2017-06-03T01:48:24.238Z,71.30
2017-06-03T01:50:53.105Z,71.50
2017-06-03T01:53:21.977Z,71.60
2017-06-03T01:55:50.861Z,71.60
2017-06-03T01:58:19.720Z,71.80
2017-06-03T02:00:48.603Z,72.10
2017-06-03T02:03:17.489Z,71.70
2017-06-03T02:05:46.377Z,72.00
2017-06-03T02:08:16.000Z,71.90
2017-06-03T02:10:44.894Z,71.90
2017-06-03T02:13:13.788Z,71.60
2017-06-03T02:15:43.819Z,71.80
2017-06-03T02:18:12.674Z,71.40
2017-06-03T02:20:41.594Z,71.30
2017-06-03T02:23:10.877Z,72.00
2017-06-03T02:25:39.753Z,71.10
2017-06-03T02:28:08.623Z,71.10
2017-06-03T02:30:38.322Z,71.10
2017-06-03T02:33:07.203Z,71.00
2017-06-03T02:35:36.070Z,71.10
2017-06-03T02:38:05.728Z,70.50
2017-06-03T02:40:40.223Z,70.50
2017-06-03T02:43:09.080Z,69.70
2017-06-03T02:45:37.962Z,69.80
2017-06-03T02:48:08.058Z,69.80
2017-06-03T02:50:36.945Z,69.70
2017-06-03T02:53:05.783Z,69.40
2017-06-03T02:55:34.655Z,69.20
2017-06-03T02:58:03.550Z,69.00
2017-06-03T03:00:31.643Z,68.90
2017-06-03T03:03:00.517Z,68.90
2017-06-03T03:05:29.418Z,68.90
2017-06-03T03:07:58.277Z,68.70
2017-06-03T03:10:26.383Z,68.70
2017-06-03T03:12:55.339Z,68.30
2017-06-03T03:15:24.210Z,68.30
2017-06-03T03:17:53.063Z,67.60
2017-06-03T03:20:21.171Z,67.60
2017-06-03T03:22:50.021Z,66.90
2017-06-03T03:25:18.890Z,66.60
2017-06-03T03:27:47.763Z,66.50
2017-06-03T03:30:16.625Z,66.00
2017-06-03T03:32:45.552Z,65.60
2017-06-03T03:35:14.400Z,65.30
2017-06-03T03:37:43.242Z,64.90
2017-06-03T03:40:11.379Z,64.90
2017-06-03T03:42:40.249Z,64.60
2017-06-03T03:45:08.465Z,64.60
2017-06-03T03:47:37.335Z,64.40
2017-06-03T03:50:06.316Z,63.60
2017-06-03T03:52:35.266Z,63.40
2017-06-03T03:55:03.355Z,63.30
2017-06-03T03:57:32.277Z,63.20
2017-06-03T04:00:05.985Z,62.90
2017-06-03T04:02:34.877Z,62.40
2017-06-03T04:05:03.766Z,62.00
2017-06-03T04:07:32.743Z,61.90
2017-06-03T04:10:13.915Z,61.50
2017-06-03T04:12:42.824Z,61.10
2017-06-03T04:15:12.622Z,60.60
2017-06-03T04:17:45.220Z,60.30
2017-06-03T04:20:14.131Z,59.60
2017-06-03T04:22:42.991Z,59.10
2017-06-03T04:25:11.866Z,58.70
2017-06-03T04:27:40.730Z,58.30
2017-06-03T04:30:09.597Z,58.10
2017-06-03T04:32:38.466Z,57.90
2017-06-03T04:35:07.360Z,57.80
2017-06-03T04:37:36.238Z,57.60
2017-06-03T04:40:26.910Z,57.90
2017-06-03T04:42:55.759Z,57.90
2017-06-03T04:45:24.648Z,58.10
2017-06-03T04:47:52.780Z,58.10
2017-06-03T04:50:20.888Z,58.10
2017-06-03T04:52:48.978Z,58.00
2017-06-03T04:55:17.829Z,58.10
2017-06-03T04:57:45.990Z,58.30
2017-06-03T05:00:14.867Z,57.80
2017-06-03T05:02:43.731Z,58.20
2017-06-03T05:05:12.594Z,58.10
2017-06-03T05:07:41.463Z,57.80
2017-06-03T05:10:10.405Z,58.00
2017-06-03T05:12:39.339Z,58.30
2017-06-03T05:15:08.901Z,58.60
2017-06-03T05:17:37.786Z,59.00
2017-06-03T05:20:06.651Z,58.90
2017-06-03T05:22:35.533Z,59.60
2017-06-03T05:25:03.626Z,59.60
2017-06-03T05:27:32.513Z,59.50
2017-06-03T05:30:01.375Z,59.40
2017-06-03T05:32:30.255Z,59.60
2017-06-03T05:34:58.342Z,59.60
2017-06-03T05:37:27.207Z,59.70
2017-06-03T05:39:56.124Z,59.90
2017-06-03T05:42:25.054Z,60.20
2017-06-03T05:44:53.918Z,60.50
2017-06-03T05:47:22.795Z,60.80
2017-06-03T05:50:04.613Z,60.70
2017-06-03T05:52:32.720Z,60.70
2017-06-03T05:55:01.587Z,60.60
2017-06-03T05:57:30.492Z,60.10
2017-06-03T05:59:59.403Z,59.80
2017-06-03T06:02:27.524Z,59.70
2017-06-03T06:04:56.408Z,59.50
2017-06-03T06:07:25.260Z,59.50
2017-06-03T06:09:54.129Z,59.40
2017-06-03T06:12:23.086Z,59.50
2017-06-03T06:14:51.169Z,59.50
2017-06-03T06:17:24.907Z,59.50
2017-06-03T06:19:53.768Z,58.90
2017-06-03T06:22:22.631Z,58.70
2017-06-03T06:24:51.499Z,58.60
2017-06-03T06:27:20.435Z,58.90
2017-06-03T06:29:49.315Z,59.10
2017-06-03T06:35:39.077Z,59.10
2017-06-03T06:38:07.951Z,59.00
2017-06-03T06:40:36.836Z,59.10
2017-06-03T06:43:05.703Z,59.00
2017-06-03T06:45:34.572Z,58.50
2017-06-03T06:48:03.461Z,58.10
2017-06-03T06:50:33.220Z,58.20
2017-06-03T06:53:02.201Z,58.20
2017-06-03T06:55:35.084Z,59.00
2017-06-03T06:58:03.231Z,59.60
2017-06-03T07:00:32.151Z,59.30
2017-06-03T07:03:00.271Z,59.30
2017-06-03T07:05:29.719Z,59.80
2017-06-03T07:07:58.714Z,61.30
2017-06-03T07:10:27.883Z,61.00
2017-06-03T07:16:48.565Z,61.20
2017-06-03T07:19:18.008Z,61.20
2017-06-03T07:21:47.214Z,62.10
2017-06-03T07:24:16.092Z,62.70
2017-06-03T07:26:48.015Z,61.40
2017-06-03T07:29:16.124Z,61.40
2017-06-03T07:31:45.079Z,62.20
2017-06-03T07:34:13.923Z,64.00
2017-06-03T07:36:42.852Z,64.20
2017-06-03T07:39:10.969Z,64.10
2017-06-03T07:41:47.143Z,63.00
2017-06-03T07:44:16.009Z,63.00
2017-06-03T07:46:45.723Z,63.10
2017-06-03T07:49:14.824Z,63.50
2017-06-03T07:51:43.920Z,63.00
2017-06-03T07:54:12.036Z,63.00
2017-06-03T07:56:40.949Z,63.20
2017-06-03T07:59:09.056Z,63.20
2017-06-03T08:01:37.271Z,63.50
2017-06-03T08:04:06.200Z,64.40
2017-06-03T08:06:35.019Z,64.20
2017-06-03T08:09:03.992Z,64.50
2017-06-03T08:11:32.880Z,65.10
2017-06-03T08:14:07.268Z,65.50
2017-06-03T08:16:36.201Z,67.20
2017-06-03T08:19:05.516Z,67.20
2017-06-03T08:21:34.437Z,68.70
2017-06-03T08:24:03.370Z,70.10
2017-06-03T08:26:32.363Z,70.70
2017-06-03T08:29:02.328Z,71.60
2017-06-03T08:31:33.159Z,71.50
2017-06-03T08:34:02.095Z,71.60
2017-06-03T08:36:33.856Z,72.50
2017-06-03T08:39:02.886Z,72.60
2017-06-03T08:41:31.851Z,72.30
2017-06-03T08:44:01.884Z,72.10
2017-06-03T08:46:30.775Z,72.80
2017-06-03T08:49:01.641Z,73.70
2017-06-03T08:51:32.066Z,74.50
2017-06-03T08:54:17.772Z,75.10
2017-06-03T08:56:47.523Z,75.30
2017-06-03T08:59:27.444Z,75.80
2017-06-03T09:01:56.393Z,76.70
2017-06-03T09:04:26.236Z,75.70
2017-06-03T09:06:55.134Z,75.80
2017-06-03T09:09:24.704Z,75.90
2017-06-03T09:11:55.757Z,75.80
2017-06-03T09:14:23.977Z,75.90
2017-06-03T09:16:52.908Z,75.30
2017-06-03T09:19:21.913Z,76.30
2017-06-03T09:21:54.545Z,75.90
2017-06-03T09:24:23.486Z,76.60
2017-06-03T09:26:53.309Z,76.50
2017-06-03T09:29:22.195Z,76.10
2017-06-03T09:31:51.088Z,75.80
2017-06-03T09:34:19.237Z,75.80
2017-06-03T09:36:48.401Z,76.70
2017-06-03T09:39:25.799Z,76.60
2017-06-03T09:41:58.341Z,77.00
2017-06-03T09:44:32.824Z,75.90
2017-06-03T09:47:05.616Z,76.10
2017-06-03T09:49:43.017Z,76.40
2017-06-03T09:52:14.652Z,76.70
2017-06-03T09:54:44.829Z,76.20
2017-06-03T09:57:33.477Z,76.30
2017-06-03T10:00:19.562Z,76.30
2017-06-03T10:28:11.789Z,75.40
2017-06-03T10:30:57.215Z,68.50
2017-06-03T10:33:42.075Z,68.90
2017-06-03T10:36:23.348Z,69.20
2017-06-03T10:38:59.601Z,69.00
2017-06-03T10:41:44.344Z,69.50
2017-06-03T10:44:29.275Z,69.60
2017-06-03T10:47:21.212Z,69.20
2017-06-03T10:49:55.630Z,68.40
2017-06-03T10:52:30.443Z,68.80
2017-06-03T10:55:04.676Z,68.80
2017-06-03T10:57:36.865Z,69.10
2017-06-03T11:00:22.128Z,69.00
2017-06-03T11:02:58.478Z,69.60
2017-06-03T11:08:37.932Z,69.40
2017-06-03T11:11:22.841Z,69.50
2017-06-03T11:13:57.080Z,69.80
2017-06-03T11:16:31.347Z,70.00
2017-06-03T11:19:12.421Z,69.60
2017-06-03T11:21:53.679Z,69.30
2017-06-03T11:24:38.401Z,70.10
2017-06-03T11:27:13.042Z,70.90
2017-06-03T11:29:51.374Z,71.40
2017-06-03T11:35:29.303Z,72.20
2017-06-03T11:38:03.632Z,72.10
2017-06-03T11:40:39.677Z,71.80
2017-06-03T11:43:11.011Z,71.50
2017-06-03T11:45:56.000Z,71.90
2017-06-03T11:48:38.097Z,71.80
2017-06-03T11:51:12.900Z,72.10
2017-06-03T11:53:55.931Z,71.90
2017-06-03T11:56:32.472Z,71.50
2017-06-03T11:59:08.157Z,70.50
2017-06-03T12:01:47.296Z,69.80
2017-06-03T12:04:32.951Z,68.60
2017-06-03T12:07:11.757Z,67.80
2017-06-03T12:10:03.231Z,67.40
2017-06-03T12:15:36.752Z,66.80
2017-06-03T12:24:21.501Z,65.80
2017-06-03T12:26:58.069Z,65.80
2017-06-03T12:29:36.164Z,65.30
2017-06-03T12:32:12.686Z,64.90
2017-06-03T12:34:52.830Z,64.80
2017-06-03T12:37:30.697Z,65.00
2017-06-03T12:40:04.760Z,65.20
2017-06-03T12:42:49.384Z,64.40
2017-06-03T12:45:25.311Z,63.90
2017-06-03T12:51:00.660Z,62.80
2017-06-03T12:53:41.299Z,62.30
2017-06-03T12:56:27.107Z,62.10
2017-06-03T12:59:11.739Z,61.90
2017-06-03T13:01:52.795Z,61.90
2017-06-03T13:04:29.388Z,62.20
2017-06-03T13:07:16.858Z,61.80
2017-06-03T13:09:59.509Z,61.30
2017-06-03T13:12:39.876Z,61.50
2017-06-03T13:15:18.105Z,62.00
2017-06-03T13:18:02.155Z,62.30
2017-06-03T13:20:46.565Z,62.30
2017-06-03T13:23:27.651Z,62.90
2017-06-03T13:26:03.883Z,63.10
2017-06-03T13:28:51.945Z,63.00
2017-06-03T13:31:40.152Z,63.10
2017-06-03T13:34:25.333Z,63.50
2017-06-03T13:37:00.802Z,63.70
2017-06-03T13:39:45.713Z,64.00
2017-06-03T13:42:21.691Z,63.80
2017-06-03T13:45:03.744Z,63.50
2017-06-03T13:47:51.310Z,63.20
2017-06-03T13:50:29.848Z,63.60
2017-06-03T13:53:03.960Z,62.80
2017-06-03T13:55:41.930Z,62.20
2017-06-03T13:58:16.066Z,62.00
2017-06-03T14:00:47.803Z,62.40
2017-06-03T14:03:23.327Z,62.40
2017-06-03T14:05:59.482Z,62.90
2017-06-03T14:08:44.692Z,63.40
2017-06-03T14:11:23.172Z,63.00
2017-06-03T14:14:00.921Z,63.00
2017-06-03T14:16:50.975Z,62.40
2017-06-03T14:19:27.249Z,62.50
2017-06-03T14:25:03.297Z,63.00
2017-06-03T14:27:39.424Z,62.90
2017-06-03T14:30:10.885Z,63.50
2017-06-03T14:32:55.396Z,64.30
2017-06-03T14:35:47.814Z,64.60
2017-06-03T14:38:28.911Z,64.60
2017-06-03T14:41:20.607Z,64.20
2017-06-03T14:44:09.325Z,64.00
2017-06-03T14:46:54.711Z,63.80
2017-06-03T14:49:45.847Z,63.70
2017-06-03T14:52:26.607Z,63.90
2017-06-03T14:55:11.664Z,64.20
2017-06-03T14:58:00.715Z,64.10
2017-06-03T15:00:37.785Z,63.70
2017-06-03T15:03:14.419Z,63.00
2017-06-03T15:05:52.398Z,63.80
2017-06-03T15:08:30.299Z,63.70
2017-06-03T15:11:06.150Z,63.70
2017-06-03T15:13:48.804Z,63.80
2017-06-03T15:16:39.918Z,63.70
2017-06-03T15:19:19.647Z,63.40
2017-06-03T15:21:53.542Z,63.30
2017-06-03T15:24:40.957Z,63.70
2017-06-03T15:27:26.178Z,63.70
2017-06-03T15:30:02.651Z,64.00
2017-06-03T15:32:40.883Z,64.20
2017-06-03T15:35:23.068Z,64.20
2017-06-03T15:38:04.551Z,64.10
2017-06-03T15:40:54.397Z,64.00
2017-06-03T15:49:32.201Z,63.70
2017-06-03T15:52:14.646Z,63.60
2017-06-03T15:57:59.379Z,63.20
2017-06-03T16:00:37.879Z,63.40
2017-06-03T16:03:19.051Z,63.30
2017-06-03T16:06:03.953Z,63.50
2017-06-03T16:08:41.716Z,63.90
2017-06-03T16:11:26.390Z,63.90
2017-06-03T16:14:02.575Z,63.70
2017-06-03T16:16:49.255Z,63.50
2017-06-03T16:19:25.475Z,63.40
2017-06-03T16:22:06.366Z,63.20
2017-06-03T16:24:54.716Z,63.10
2017-06-03T16:27:31.268Z,63.00
2017-06-03T16:30:19.136Z,63.20
2017-06-03T16:32:54.186Z,62.90
2017-06-03T16:35:32.330Z,62.50
2017-06-03T16:38:09.239Z,62.50
2017-06-03T16:40:55.238Z,62.60
2017-06-03T16:49:35.812Z,62.70
2017-06-03T16:52:18.137Z,63.50
2017-06-03T16:54:54.287Z,63.50
2017-06-03T16:57:36.079Z,63.60
2017-06-03T17:00:17.399Z,64.30
2017-06-03T17:02:53.448Z,65.30
2017-06-03T17:05:38.497Z,65.70
2017-06-03T17:08:23.480Z,65.70
2017-06-03T17:11:01.499Z,65.50
2017-06-03T17:13:37.617Z,65.40
2017-06-03T17:16:26.825Z,65.50
2017-06-03T17:19:07.346Z,65.70
2017-06-03T17:27:44.486Z,67.30
2017-06-03T17:30:34.835Z,67.50
2017-06-03T17:33:20.031Z,67.60
2017-06-03T17:39:01.560Z,67.60
2017-06-03T17:41:37.999Z,68.20
2017-06-03T17:44:22.647Z,68.50
2017-06-03T17:50:06.235Z,69.10
2017-06-03T17:52:44.386Z,69.10
2017-06-03T17:55:28.903Z,69.00
2017-06-03T18:01:02.537Z,69.10
2017-06-03T18:06:40.550Z,69.20
2017-06-03T18:09:25.089Z,69.80
2017-06-03T18:12:00.399Z,70.50
2017-06-03T18:14:32.130Z,71.00
2017-06-03T18:17:05.936Z,71.20
2017-06-03T18:19:56.820Z,71.40
2017-06-03T18:22:31.455Z,71.80
2017-06-03T18:25:15.147Z,72.30
2017-06-03T18:27:59.568Z,73.00
2017-06-03T18:30:41.127Z,73.70
2017-06-03T18:33:26.230Z,74.20
2017-06-03T18:36:08.129Z,74.70
2017-06-03T18:38:50.145Z,75.30
2017-06-03T18:41:49.038Z,75.20
2017-06-03T18:44:35.853Z,75.60
2017-06-03T18:47:20.267Z,75.60
2017-06-03T18:50:16.028Z,75.70
2017-06-03T18:53:00.924Z,76.10
2017-06-03T18:55:32.068Z,76.50
2017-06-03T18:58:14.603Z,76.90
2017-06-03T19:06:56.761Z,77.60
2017-06-03T19:09:32.741Z,78.10
2017-06-03T19:12:10.176Z,78.40
2017-06-03T19:14:56.138Z,78.50
2017-06-03T19:17:45.427Z,79.30
2017-06-03T19:20:21.393Z,79.80
2017-06-03T19:22:58.725Z,79.90
2017-06-03T19:25:43.231Z,80.40
2017-06-03T19:28:30.793Z,80.50
2017-06-03T19:31:16.195Z,81.00
2017-06-03T19:40:07.056Z,82.00
2017-06-03T19:42:43.749Z,82.40
2017-06-03T19:48:11.801Z,83.00
2017-06-03T19:50:54.976Z,83.20
2017-06-03T19:53:29.792Z,83.40
2017-06-03T19:56:10.954Z,83.40
2017-06-03T19:58:56.429Z,83.70
2017-06-03T20:01:31.479Z,83.90
2017-06-03T20:04:04.316Z,84.00
2017-06-03T20:06:50.397Z,84.10
2017-06-03T20:09:28.880Z,84.10
2017-06-03T20:12:21.273Z,84.10
2017-06-03T20:14:57.811Z,83.90
2017-06-03T20:17:38.689Z,84.00
2017-06-03T20:20:25.310Z,83.90
2017-06-03T20:23:09.891Z,83.90
2017-06-03T20:26:02.319Z,84.10
2017-06-03T20:31:35.261Z,83.90
2017-06-03T20:34:19.898Z,84.10
2017-06-03T20:36:57.945Z,84.30
2017-06-03T20:39:35.958Z,84.20
2017-06-03T20:42:14.166Z,84.60
2017-06-03T20:44:56.682Z,84.50
2017-06-03T20:56:30.813Z,84.70
2017-06-03T20:59:19.872Z,84.60
2017-06-03T21:01:54.508Z,84.60
2017-06-03T21:04:29.401Z,84.70
2017-06-03T21:07:08.022Z,85.10
2017-06-03T21:09:51.553Z,85.00
2017-06-03T21:12:32.817Z,85.10
2017-06-03T21:18:10.304Z,85.20
2017-06-03T21:20:47.026Z,85.30
2017-06-03T21:23:35.253Z,85.20
2017-06-03T21:26:20.357Z,85.30
2017-06-03T21:29:00.257Z,85.30
2017-06-03T21:31:44.782Z,85.40
2017-06-03T21:34:23.260Z,85.90
2017-06-03T21:37:08.356Z,86.00
2017-06-03T21:39:54.399Z,85.90
2017-06-03T21:42:42.777Z,86.00
2017-06-03T21:45:19.375Z,86.10
2017-06-03T21:48:00.570Z,86.30
2017-06-03T21:50:44.999Z,86.10
2017-06-03T21:56:19.474Z,86.30
2017-06-03T21:59:01.207Z,86.70
2017-06-03T22:01:42.008Z,86.70
2017-06-03T22:07:22.699Z,86.90
2017-06-03T22:12:53.128Z,87.00
2017-06-03T22:18:31.578Z,87.30
2017-06-03T22:21:20.947Z,87.10
2017-06-03T22:24:03.687Z,87.00
2017-06-03T22:26:59.030Z,87.00
2017-06-03T22:29:38.465Z,86.80
2017-06-03T22:35:15.502Z,86.90
2017-06-03T22:37:56.369Z,87.00
2017-06-03T22:46:36.895Z,87.00
2017-06-03T22:52:12.534Z,87.00
2017-06-03T23:09:47.758Z,87.00
2017-06-03T23:12:29.564Z,87.10
2017-06-03T23:15:17.305Z,87.50
2017-06-03T23:18:02.691Z,87.50
2017-06-03T23:20:47.795Z,88.10
2017-06-03T23:23:26.144Z,88.40
2017-06-03T23:25:59.983Z,88.60
2017-06-03T23:31:02.358Z,88.90
2017-06-03T23:33:36.334Z,89.70
2017-06-03T23:36:21.136Z,90.10
2017-06-03T23:39:08.877Z,90.40
2017-06-03T23:41:45.875Z,90.60
2017-06-03T23:44:27.195Z,90.70
2017-06-03T23:47:11.802Z,90.70
2017-06-03T23:52:46.922Z,91.00
2017-06-03T23:55:23.555Z,91.10
2017-06-03T23:58:13.848Z,91.10
